sensor_id;sensor_type;location;lat;lon;timestamp;P1;durP1;ratioP1;P2;durP2;ratioP2
13951;SDS011;39535;52.192;9.886;2023-02-08T00:00:56;14.93;;;13.43;;
13951;SDS011;39535;52.192;9.886;2023-02-08T00:03:23;15.20;;;13.30;;
13951;SDS011;39535;52.192;9.886;2023-02-08T00:05:49;14.83;;;12.70;;
13951;SDS011;39535;52.192;9.886;2023-02-08T00:08:16;17.27;;;15.68;;
13951;SDS011;39535;52.192;9.886;2023-02-08T00:10:42;16.47;;;14.60;;
13951;SDS011;39535;52.192;9.886;2023-02-08T00:13:09;15.73;;;13.83;;
13951;SDS011;39535;52.192;9.886;2023-02-08T00:15:39;15.97;;;13.23;;
13951;SDS011;39535;52.192;9.886;2023-02-08T00:18:08;15.20;;;13.60;;
13951;SDS011;39535;52.192;9.886;2023-02-08T00:20:36;14.27;;;12.83;;
13951;SDS011;39535;52.192;9.886;2023-02-08T00:23:03;16.53;;;14.80;;
13951;SDS011;39535;52.192;9.886;2023-02-08T00:25:29;14.03;;;12.53;;
13951;SDS011;39535;52.192;9.886;2023-02-08T00:27:56;14.93;;;13.33;;
13951;SDS011;39535;52.192;9.886;2023-02-08T00:30:22;14.63;;;13.13;;
13951;SDS011;39535;52.192;9.886;2023-02-08T00:32:49;16.70;;;13.30;;
13951;SDS011;39535;52.192;9.886;2023-02-08T00:35:17;15.43;;;12.57;;
13951;SDS011;39535;52.192;9.886;2023-02-08T00:37:43;14.87;;;12.77;;
13951;SDS011;39535;52.192;9.886;2023-02-08T00:40:10;21.40;;;14.53;;
13951;SDS011;39535;52.192;9.886;2023-02-08T00:42:37;16.20;;;13.40;;
13951;SDS011;39535;52.192;9.886;2023-02-08T00:45:03;13.97;;;12.47;;
13951;SDS011;39535;52.192;9.886;2023-02-08T00:47:30;16.20;;;13.80;;
13951;SDS011;39535;52.192;9.886;2023-02-08T00:49:57;15.20;;;13.60;;
13951;SDS011;39535;52.192;9.886;2023-02-08T00:52:25;15.27;;;13.23;;
13951;SDS011;39535;52.192;9.886;2023-02-08T00:54:52;17.33;;;13.47;;
13951;SDS011;39535;52.192;9.886;2023-02-08T00:57:19;16.00;;;14.10;;
13951;SDS011;39535;52.192;9.886;2023-02-08T00:59:45;15.60;;;13.37;;
13951;SDS011;39535;52.192;9.886;2023-02-08T01:02:12;15.73;;;12.73;;
13951;SDS011;39535;52.192;9.886;2023-02-08T01:04:38;15.53;;;13.93;;
13951;SDS011;39535;52.192;9.886;2023-02-08T01:07:05;14.70;;;12.20;;
13951;SDS011;39535;52.192;9.886;2023-02-08T01:09:33;14.63;;;13.20;;
13951;SDS011;39535;52.192;9.886;2023-02-08T01:12:00;15.50;;;13.67;;
13951;SDS011;39535;52.192;9.886;2023-02-08T01:14:26;16.60;;;13.10;;
13951;SDS011;39535;52.192;9.886;2023-02-08T01:16:53;16.37;;;12.33;;
13951;SDS011;39535;52.192;9.886;2023-02-08T01:19:19;16.07;;;12.43;;
13951;SDS011;39535;52.192;9.886;2023-02-08T01:21:46;14.57;;;13.00;;
13951;SDS011;39535;52.192;9.886;2023-02-08T01:24:13;16.53;;;12.70;;
13951;SDS011;39535;52.192;9.886;2023-02-08T01:26:41;13.97;;;12.13;;
13951;SDS011;39535;52.192;9.886;2023-02-08T01:29:07;14.50;;;12.57;;
13951;SDS011;39535;52.192;9.886;2023-02-08T01:31:35;15.47;;;13.83;;
13951;SDS011;39535;52.192;9.886;2023-02-08T01:34:03;15.00;;;13.40;;
13951;SDS011;39535;52.192;9.886;2023-02-08T01:36:31;14.93;;;13.40;;
13951;SDS011;39535;52.192;9.886;2023-02-08T01:38:59;13.90;;;12.50;;
13951;SDS011;39535;52.192;9.886;2023-02-08T01:41:27;17.80;;;12.40;;
13951;SDS011;39535;52.192;9.886;2023-02-08T01:44:00;16.30;;;13.50;;
13951;SDS011;39535;52.192;9.886;2023-02-08T01:46:33;14.73;;;12.67;;
13951;SDS011;39535;52.192;9.886;2023-02-08T01:49:02;14.87;;;13.33;;
13951;SDS011;39535;52.192;9.886;2023-02-08T01:51:31;16.73;;;12.77;;
13951;SDS011;39535;52.192;9.886;2023-02-08T01:54:01;16.27;;;12.93;;
13951;SDS011;39535;52.192;9.886;2023-02-08T01:56:30;14.53;;;13.03;;
13951;SDS011;39535;52.192;9.886;2023-02-08T01:59:02;13.83;;;11.77;;
13951;SDS011;39535;52.192;9.886;2023-02-08T02:01:31;15.77;;;12.67;;
13951;SDS011;39535;52.192;9.886;2023-02-08T02:03:59;14.10;;;12.57;;
13951;SDS011;39535;52.192;9.886;2023-02-08T02:06:27;13.47;;;11.77;;
13951;SDS011;39535;52.192;9.886;2023-02-08T02:09:00;14.50;;;12.43;;
13951;SDS011;39535;52.192;9.886;2023-02-08T02:11:32;14.60;;;13.03;;
13951;SDS011;39535;52.192;9.886;2023-02-08T02:13:58;16.30;;;12.33;;
13951;SDS011;39535;52.192;9.886;2023-02-08T02:16:28;15.60;;;11.70;;
13951;SDS011;39535;52.192;9.886;2023-02-08T02:18:54;15.90;;;13.20;;
13951;SDS011;39535;52.192;9.886;2023-02-08T02:21:24;12.97;;;11.67;;
13951;SDS011;39535;52.192;9.886;2023-02-08T02:36:01;12.03;;;10.73;;
13951;SDS011;39535;52.192;9.886;2023-02-08T02:38:38;12.13;;;10.87;;
13951;SDS011;39535;52.192;9.886;2023-02-08T02:41:16;15.50;;;12.57;;
13951;SDS011;39535;52.192;9.886;2023-02-08T02:44:02;17.50;;;14.17;;
13951;SDS011;39535;52.192;9.886;2023-02-08T02:46:36;19.77;;;14.60;;
13951;SDS011;39535;52.192;9.886;2023-02-08T02:49:08;16.97;;;14.60;;
13951;SDS011;39535;52.192;9.886;2023-02-08T02:51:42;18.43;;;15.20;;
13951;SDS011;39535;52.192;9.886;2023-02-08T02:54:15;17.20;;;14.43;;
13951;SDS011;39535;52.192;9.886;2023-02-08T02:56:46;16.23;;;14.50;;
13951;SDS011;39535;52.192;9.886;2023-02-08T02:59:14;19.83;;;15.57;;
13951;SDS011;39535;52.192;9.886;2023-02-08T03:01:42;19.20;;;14.87;;
13951;SDS011;39535;52.192;9.886;2023-02-08T03:04:14;16.43;;;13.87;;
13951;SDS011;39535;52.192;9.886;2023-02-08T03:06:48;15.83;;;14.10;;
13951;SDS011;39535;52.192;9.886;2023-02-08T03:09:29;17.97;;;13.83;;
13951;SDS011;39535;52.192;9.886;2023-02-08T03:12:07;15.20;;;12.97;;
13951;SDS011;39535;52.192;9.886;2023-02-08T03:14:47;13.93;;;12.43;;
13951;SDS011;39535;52.192;9.886;2023-02-08T03:17:24;16.67;;;12.63;;
13951;SDS011;39535;52.192;9.886;2023-02-08T03:20:10;20.00;;;12.03;;
13951;SDS011;39535;52.192;9.886;2023-02-08T03:22:43;15.00;;;11.50;;
13951;SDS011;39535;52.192;9.886;2023-02-08T03:25:17;15.03;;;11.57;;
13951;SDS011;39535;52.192;9.886;2023-02-08T03:27:50;14.87;;;12.37;;
13951;SDS011;39535;52.192;9.886;2023-02-08T03:30:27;14.20;;;12.57;;
13951;SDS011;39535;52.192;9.886;2023-02-08T03:32:59;13.53;;;11.70;;
13951;SDS011;39535;52.192;9.886;2023-02-08T03:35:33;14.23;;;12.33;;
13951;SDS011;39535;52.192;9.886;2023-02-08T03:38:06;14.13;;;12.17;;
13951;SDS011;39535;52.192;9.886;2023-02-08T03:40:36;14.63;;;12.93;;
13951;SDS011;39535;52.192;9.886;2023-02-08T03:43:06;14.30;;;12.80;;
13951;SDS011;39535;52.192;9.886;2023-02-08T03:45:37;13.40;;;12.00;;
13951;SDS011;39535;52.192;9.886;2023-02-08T03:48:08;13.80;;;12.37;;
13951;SDS011;39535;52.192;9.886;2023-02-08T03:50:40;15.63;;;12.30;;
13951;SDS011;39535;52.192;9.886;2023-02-08T03:53:11;17.73;;;12.80;;
13951;SDS011;39535;52.192;9.886;2023-02-08T03:55:40;15.13;;;12.27;;
13951;SDS011;39535;52.192;9.886;2023-02-08T03:58:11;16.17;;;13.07;;
13951;SDS011;39535;52.192;9.886;2023-02-08T04:00:44;14.27;;;11.77;;
13951;SDS011;39535;52.192;9.886;2023-02-08T04:03:18;15.33;;;12.33;;
13951;SDS011;39535;52.192;9.886;2023-02-08T04:05:49;14.03;;;12.37;;
13951;SDS011;39535;52.192;9.886;2023-02-08T04:08:15;16.37;;;12.93;;
13951;SDS011;39535;52.192;9.886;2023-02-08T04:10:42;13.77;;;12.37;;
13951;SDS011;39535;52.192;9.886;2023-02-08T04:13:08;15.20;;;13.10;;
13951;SDS011;39535;52.192;9.886;2023-02-08T04:15:35;14.40;;;12.40;;
13951;SDS011;39535;52.192;9.886;2023-02-08T04:18:01;13.80;;;11.63;;
13951;SDS011;39535;52.192;9.886;2023-02-08T04:20:28;15.07;;;12.07;;
13951;SDS011;39535;52.192;9.886;2023-02-08T04:22:56;14.50;;;11.87;;
13951;SDS011;39535;52.192;9.886;2023-02-08T04:25:22;16.70;;;11.67;;
13951;SDS011;39535;52.192;9.886;2023-02-08T04:27:48;13.90;;;11.50;;
13951;SDS011;39535;52.192;9.886;2023-02-08T04:30:15;14.70;;;11.47;;
13951;SDS011;39535;52.192;9.886;2023-02-08T04:32:41;14.93;;;11.60;;
13951;SDS011;39535;52.192;9.886;2023-02-08T04:35:08;12.60;;;10.97;;
13951;SDS011;39535;52.192;9.886;2023-02-08T04:37:34;13.17;;;10.73;;
13951;SDS011;39535;52.192;9.886;2023-02-08T04:40:02;12.97;;;11.03;;
13951;SDS011;39535;52.192;9.886;2023-02-08T04:42:29;11.40;;;9.60;;
13951;SDS011;39535;52.192;9.886;2023-02-08T04:44:55;11.67;;;10.00;;
13951;SDS011;39535;52.192;9.886;2023-02-08T04:47:22;16.93;;;12.37;;
13951;SDS011;39535;52.192;9.886;2023-02-08T04:49:48;15.83;;;13.23;;
13951;SDS011;39535;52.192;9.886;2023-02-08T04:52:15;17.67;;;14.13;;
13951;SDS011;39535;52.192;9.886;2023-02-08T04:54:41;16.30;;;13.63;;
13951;SDS011;39535;52.192;9.886;2023-02-08T04:57:09;16.17;;;14.47;;
13951;SDS011;39535;52.192;9.886;2023-02-08T04:59:37;16.60;;;14.50;;
13951;SDS011;39535;52.192;9.886;2023-02-08T05:02:04;19.90;;;15.20;;
13951;SDS011;39535;52.192;9.886;2023-02-08T05:04:30;17.67;;;15.13;;
13951;SDS011;39535;52.192;9.886;2023-02-08T05:06:57;26.80;;;16.47;;
13951;SDS011;39535;52.192;9.886;2023-02-08T05:09:24;23.33;;;16.20;;
13951;SDS011;39535;52.192;9.886;2023-02-08T05:11:50;20.77;;;15.07;;
13951;SDS011;39535;52.192;9.886;2023-02-08T05:14:18;17.10;;;14.40;;
13951;SDS011;39535;52.192;9.886;2023-02-08T05:16:44;20.83;;;16.37;;
13951;SDS011;39535;52.192;9.886;2023-02-08T05:19:11;23.00;;;16.57;;
13951;SDS011;39535;52.192;9.886;2023-02-08T05:21:37;19.67;;;15.00;;
13951;SDS011;39535;52.192;9.886;2023-02-08T05:24:04;17.03;;;15.10;;
13951;SDS011;39535;52.192;9.886;2023-02-08T05:26:31;16.57;;;14.27;;
13951;SDS011;39535;52.192;9.886;2023-02-08T05:28:58;21.93;;;14.77;;
13951;SDS011;39535;52.192;9.886;2023-02-08T05:31:26;18.37;;;14.90;;
13951;SDS011;39535;52.192;9.886;2023-02-08T05:33:52;18.67;;;15.13;;
13951;SDS011;39535;52.192;9.886;2023-02-08T05:36:19;19.97;;;14.57;;
13951;SDS011;39535;52.192;9.886;2023-02-08T05:38:47;23.30;;;16.03;;
13951;SDS011;39535;52.192;9.886;2023-02-08T05:41:14;22.50;;;15.53;;
13951;SDS011;39535;52.192;9.886;2023-02-08T05:43:40;19.73;;;14.97;;
13951;SDS011;39535;52.192;9.886;2023-02-08T05:46:07;17.50;;;15.20;;
13951;SDS011;39535;52.192;9.886;2023-02-08T05:48:35;16.90;;;15.03;;
13951;SDS011;39535;52.192;9.886;2023-02-08T05:51:01;17.17;;;15.13;;
13951;SDS011;39535;52.192;9.886;2023-02-08T05:53:27;20.43;;;15.27;;
13951;SDS011;39535;52.192;9.886;2023-02-08T05:55:55;17.73;;;15.67;;
13951;SDS011;39535;52.192;9.886;2023-02-08T05:58:22;21.00;;;15.77;;
13951;SDS011;39535;52.192;9.886;2023-02-08T06:00:49;25.77;;;15.50;;
13951;SDS011;39535;52.192;9.886;2023-02-08T06:03:15;18.53;;;14.57;;
13951;SDS011;39535;52.192;9.886;2023-02-08T06:05:43;22.33;;;15.77;;
13951;SDS011;39535;52.192;9.886;2023-02-08T06:08:10;18.87;;;14.13;;
13951;SDS011;39535;52.192;9.886;2023-02-08T06:10:36;15.47;;;12.57;;
13951;SDS011;39535;52.192;9.886;2023-02-08T06:13:03;16.43;;;12.37;;
13951;SDS011;39535;52.192;9.886;2023-02-08T06:15:29;15.27;;;11.70;;
13951;SDS011;39535;52.192;9.886;2023-02-08T06:17:56;12.77;;;11.13;;
13951;SDS011;39535;52.192;9.886;2023-02-08T06:20:23;12.80;;;11.47;;
13951;SDS011;39535;52.192;9.886;2023-02-08T06:22:50;13.03;;;11.03;;
13951;SDS011;39535;52.192;9.886;2023-02-08T06:25:17;13.40;;;11.30;;
13951;SDS011;39535;52.192;9.886;2023-02-08T06:27:43;14.77;;;11.00;;
13951;SDS011;39535;52.192;9.886;2023-02-08T06:30:11;12.07;;;10.87;;
13951;SDS011;39535;52.192;9.886;2023-02-08T06:32:38;15.87;;;10.80;;
13951;SDS011;39535;52.192;9.886;2023-02-08T06:35:05;12.53;;;10.20;;
13951;SDS011;39535;52.192;9.886;2023-02-08T06:37:31;14.30;;;10.57;;
13951;SDS011;39535;52.192;9.886;2023-02-08T06:39:59;12.80;;;10.00;;
13951;SDS011;39535;52.192;9.886;2023-02-08T06:42:26;13.83;;;11.27;;
13951;SDS011;39535;52.192;9.886;2023-02-08T06:44:52;12.13;;;10.17;;
13951;SDS011;39535;52.192;9.886;2023-02-08T06:47:19;13.33;;;10.87;;
13951;SDS011;39535;52.192;9.886;2023-02-08T06:49:46;11.13;;;10.00;;
13951;SDS011;39535;52.192;9.886;2023-02-08T06:52:12;15.10;;;10.97;;
13951;SDS011;39535;52.192;9.886;2023-02-08T06:54:39;11.13;;;9.20;;
13951;SDS011;39535;52.192;9.886;2023-02-08T06:57:06;12.90;;;10.97;;
13951;SDS011;39535;52.192;9.886;2023-02-08T06:59:33;13.53;;;10.60;;
13951;SDS011;39535;52.192;9.886;2023-02-08T07:01:59;13.20;;;10.97;;
13951;SDS011;39535;52.192;9.886;2023-02-08T07:04:26;13.63;;;10.67;;
13951;SDS011;39535;52.192;9.886;2023-02-08T07:06:52;14.87;;;11.30;;
13951;SDS011;39535;52.192;9.886;2023-02-08T07:09:19;12.60;;;11.23;;
13951;SDS011;39535;52.192;9.886;2023-02-08T07:11:45;17.90;;;11.97;;
13951;SDS011;39535;52.192;9.886;2023-02-08T07:14:13;14.67;;;11.77;;
13951;SDS011;39535;52.192;9.886;2023-02-08T07:16:40;14.87;;;11.83;;
13951;SDS011;39535;52.192;9.886;2023-02-08T07:19:07;17.23;;;12.37;;
13951;SDS011;39535;52.192;9.886;2023-02-08T07:21:33;14.40;;;11.77;;
13951;SDS011;39535;52.192;9.886;2023-02-08T07:24:00;13.03;;;11.63;;
13951;SDS011;39535;52.192;9.886;2023-02-08T07:26:26;15.60;;;12.37;;
13951;SDS011;39535;52.192;9.886;2023-02-08T07:28:53;15.97;;;12.70;;
13951;SDS011;39535;52.192;9.886;2023-02-08T07:31:20;18.10;;;12.10;;
13951;SDS011;39535;52.192;9.886;2023-02-08T07:33:47;15.73;;;12.60;;
13951;SDS011;39535;52.192;9.886;2023-02-08T07:36:13;15.87;;;12.07;;
13951;SDS011;39535;52.192;9.886;2023-02-08T07:38:40;12.80;;;10.93;;
13951;SDS011;39535;52.192;9.886;2023-02-08T07:41:07;16.90;;;12.37;;
13951;SDS011;39535;52.192;9.886;2023-02-08T07:43:35;12.47;;;10.97;;
13951;SDS011;39535;52.192;9.886;2023-02-08T07:46:06;14.57;;;11.03;;
13951;SDS011;39535;52.192;9.886;2023-02-08T07:48:34;12.93;;;10.87;;
13951;SDS011;39535;52.192;9.886;2023-02-08T07:51:00;12.47;;;10.83;;
13951;SDS011;39535;52.192;9.886;2023-02-08T07:53:27;12.53;;;11.23;;
13951;SDS011;39535;52.192;9.886;2023-02-08T07:55:53;16.30;;;11.97;;
13951;SDS011;39535;52.192;9.886;2023-02-08T07:58:20;13.77;;;11.10;;
13951;SDS011;39535;52.192;9.886;2023-02-08T08:00:46;15.13;;;12.33;;
13951;SDS011;39535;52.192;9.886;2023-02-08T08:03:13;16.17;;;12.73;;
13951;SDS011;39535;52.192;9.886;2023-02-08T08:05:41;15.80;;;12.60;;
13951;SDS011;39535;52.192;9.886;2023-02-08T08:08:08;14.43;;;12.93;;
13951;SDS011;39535;52.192;9.886;2023-02-08T08:10:35;19.40;;;14.00;;
13951;SDS011;39535;52.192;9.886;2023-02-08T08:13:02;18.27;;;14.70;;
13951;SDS011;39535;52.192;9.886;2023-02-08T08:15:29;20.40;;;15.23;;
13951;SDS011;39535;52.192;9.886;2023-02-08T08:17:56;22.57;;;15.83;;
13951;SDS011;39535;52.192;9.886;2023-02-08T08:20:22;21.73;;;15.97;;
13951;SDS011;39535;52.192;9.886;2023-02-08T08:22:51;19.80;;;15.43;;
13951;SDS011;39535;52.192;9.886;2023-02-08T08:25:17;22.03;;;15.33;;
13951;SDS011;39535;52.192;9.886;2023-02-08T08:27:44;27.03;;;17.07;;
13951;SDS011;39535;52.192;9.886;2023-02-08T08:30:11;17.93;;;15.10;;
13951;SDS011;39535;52.192;9.886;2023-02-08T08:32:39;23.10;;;17.73;;
13951;SDS011;39535;52.192;9.886;2023-02-08T08:35:06;20.33;;;15.77;;
13951;SDS011;39535;52.192;9.886;2023-02-08T08:37:34;20.90;;;17.03;;
13951;SDS011;39535;52.192;9.886;2023-02-08T08:40:02;21.80;;;15.80;;
13951;SDS011;39535;52.192;9.886;2023-02-08T08:42:30;21.37;;;16.20;;
13951;SDS011;39535;52.192;9.886;2023-02-08T08:44:57;21.43;;;16.37;;
13951;SDS011;39535;52.192;9.886;2023-02-08T08:47:23;23.67;;;16.13;;
13951;SDS011;39535;52.192;9.886;2023-02-08T08:49:50;27.03;;;15.87;;
13951;SDS011;39535;52.192;9.886;2023-02-08T08:52:16;25.93;;;17.53;;
13951;SDS011;39535;52.192;9.886;2023-02-08T08:54:44;23.63;;;17.13;;
13951;SDS011;39535;52.192;9.886;2023-02-08T08:57:12;20.20;;;16.33;;
13951;SDS011;39535;52.192;9.886;2023-02-08T08:59:38;19.80;;;15.50;;
13951;SDS011;39535;52.192;9.886;2023-02-08T09:02:05;20.23;;;16.00;;
13951;SDS011;39535;52.192;9.886;2023-02-08T09:04:32;19.00;;;16.50;;
13951;SDS011;39535;52.192;9.886;2023-02-08T09:06:59;24.75;;;21.02;;
13951;SDS011;39535;52.192;9.886;2023-02-08T09:09:25;23.53;;;17.63;;
13951;SDS011;39535;52.192;9.886;2023-02-08T09:11:51;22.40;;;17.87;;
13951;SDS011;39535;52.192;9.886;2023-02-08T09:14:19;22.83;;;16.03;;
13951;SDS011;39535;52.192;9.886;2023-02-08T09:16:46;23.00;;;16.93;;
13951;SDS011;39535;52.192;9.886;2023-02-08T09:19:13;23.53;;;17.27;;
13951;SDS011;39535;52.192;9.886;2023-02-08T09:21:40;25.77;;;18.33;;
13951;SDS011;39535;52.192;9.886;2023-02-08T09:24:07;26.70;;;17.80;;
13951;SDS011;39535;52.192;9.886;2023-02-08T09:26:33;24.00;;;17.10;;
13951;SDS011;39535;52.192;9.886;2023-02-08T09:29:00;19.03;;;16.93;;
13951;SDS011;39535;52.192;9.886;2023-02-08T09:31:29;18.63;;;16.63;;
13951;SDS011;39535;52.192;9.886;2023-02-08T09:33:57;25.93;;;18.20;;
13951;SDS011;39535;52.192;9.886;2023-02-08T09:36:27;29.53;;;19.37;;
13951;SDS011;39535;52.192;9.886;2023-02-08T09:38:57;23.90;;;18.67;;
13951;SDS011;39535;52.192;9.886;2023-02-08T09:41:29;26.73;;;19.30;;
13951;SDS011;39535;52.192;9.886;2023-02-08T09:44:11;29.57;;;21.30;;
13951;SDS011;39535;52.192;9.886;2023-02-08T09:46:44;26.37;;;19.47;;
13951;SDS011;39535;52.192;9.886;2023-02-08T09:49:19;25.90;;;17.90;;
13951;SDS011;39535;52.192;9.886;2023-02-08T09:51:50;21.07;;;17.43;;
13951;SDS011;39535;52.192;9.886;2023-02-08T09:54:22;19.90;;;17.27;;
13951;SDS011;39535;52.192;9.886;2023-02-08T09:56:53;22.53;;;16.13;;
13951;SDS011;39535;52.192;9.886;2023-02-08T09:59:23;23.33;;;15.57;;
13951;SDS011;39535;52.192;9.886;2023-02-08T10:01:53;29.63;;;20.47;;
13951;SDS011;39535;52.192;9.886;2023-02-08T10:04:24;17.90;;;15.97;;
13951;SDS011;39535;52.192;9.886;2023-02-08T10:06:58;20.53;;;15.23;;
13951;SDS011;39535;52.192;9.886;2023-02-08T10:09:25;26.07;;;15.77;;
13951;SDS011;39535;52.192;9.886;2023-02-08T10:11:53;18.33;;;15.07;;
13951;SDS011;39535;52.192;9.886;2023-02-08T10:14:35;14.87;;;13.33;;
13951;SDS011;39535;52.192;9.886;2023-02-08T10:17:18;17.83;;;15.03;;
13951;SDS011;39535;52.192;9.886;2023-02-08T10:20:02;18.97;;;14.20;;
13951;SDS011;39535;52.192;9.886;2023-02-08T10:22:37;18.23;;;13.73;;
13951;SDS011;39535;52.192;9.886;2023-02-08T10:25:15;18.10;;;14.37;;
13951;SDS011;39535;52.192;9.886;2023-02-08T10:27:53;20.60;;;15.47;;
13951;SDS011;39535;52.192;9.886;2023-02-08T10:30:36;16.77;;;13.97;;
13951;SDS011;39535;52.192;9.886;2023-02-08T10:33:16;17.30;;;14.17;;
13951;SDS011;39535;52.192;9.886;2023-02-08T10:35:47;17.00;;;14.40;;
13951;SDS011;39535;52.192;9.886;2023-02-08T10:38:19;16.00;;;14.30;;
13951;SDS011;39535;52.192;9.886;2023-02-08T10:40:50;17.93;;;13.63;;
13951;SDS011;39535;52.192;9.886;2023-02-08T10:43:22;17.50;;;13.40;;
13951;SDS011;39535;52.192;9.886;2023-02-08T10:45:55;14.90;;;12.83;;
13951;SDS011;39535;52.192;9.886;2023-02-08T10:48:33;16.63;;;13.10;;
13951;SDS011;39535;52.192;9.886;2023-02-08T10:51:08;14.60;;;13.20;;
13951;SDS011;39535;52.192;9.886;2023-02-08T10:53:39;17.43;;;13.47;;
13951;SDS011;39535;52.192;9.886;2023-02-08T10:56:08;19.10;;;14.87;;
13951;SDS011;39535;52.192;9.886;2023-02-08T10:58:52;17.27;;;12.97;;
13951;SDS011;39535;52.192;9.886;2023-02-08T11:01:20;15.80;;;14.20;;
13951;SDS011;39535;52.192;9.886;2023-02-08T11:04:01;19.50;;;16.03;;
13951;SDS011;39535;52.192;9.886;2023-02-08T11:06:29;17.00;;;13.60;;
13951;SDS011;39535;52.192;9.886;2023-02-08T11:08:56;17.70;;;14.90;;
13951;SDS011;39535;52.192;9.886;2023-02-08T11:11:23;33.70;;;18.23;;
13951;SDS011;39535;52.192;9.886;2023-02-08T11:13:51;20.13;;;18.00;;
13951;SDS011;39535;52.192;9.886;2023-02-08T11:16:19;17.73;;;14.77;;
13951;SDS011;39535;52.192;9.886;2023-02-08T11:18:48;16.10;;;13.33;;
13951;SDS011;39535;52.192;9.886;2023-02-08T11:21:22;19.40;;;13.97;;
13951;SDS011;39535;52.192;9.886;2023-02-08T11:23:51;15.73;;;14.23;;
13951;SDS011;39535;52.192;9.886;2023-02-08T11:26:21;16.90;;;14.03;;
13951;SDS011;39535;52.192;9.886;2023-02-08T11:29:00;16.20;;;14.53;;
13951;SDS011;39535;52.192;9.886;2023-02-08T11:31:28;16.93;;;13.67;;
13951;SDS011;39535;52.192;9.886;2023-02-08T11:33:59;15.67;;;13.60;;
13951;SDS011;39535;52.192;9.886;2023-02-08T11:36:30;15.57;;;14.03;;
13951;SDS011;39535;52.192;9.886;2023-02-08T11:38:59;15.27;;;13.60;;
13951;SDS011;39535;52.192;9.886;2023-02-08T11:41:27;15.87;;;13.13;;
13951;SDS011;39535;52.192;9.886;2023-02-08T11:43:56;17.37;;;13.17;;
13951;SDS011;39535;52.192;9.886;2023-02-08T11:46:26;15.17;;;13.37;;
13951;SDS011;39535;52.192;9.886;2023-02-08T11:48:54;15.13;;;12.60;;
13951;SDS011;39535;52.192;9.886;2023-02-08T11:51:25;15.40;;;12.90;;
13951;SDS011;39535;52.192;9.886;2023-02-08T11:53:56;16.27;;;13.77;;
13951;SDS011;39535;52.192;9.886;2023-02-08T11:56:25;14.13;;;11.73;;
13951;SDS011;39535;52.192;9.886;2023-02-08T11:58:57;13.83;;;12.40;;
13951;SDS011;39535;52.192;9.886;2023-02-08T12:01:27;19.70;;;13.00;;
13951;SDS011;39535;52.192;9.886;2023-02-08T12:03:56;14.97;;;12.50;;
13951;SDS011;39535;52.192;9.886;2023-02-08T12:09:27;13.03;;;11.73;;
13951;SDS011;39535;52.192;9.886;2023-02-08T12:12:08;14.40;;;11.80;;
13951;SDS011;39535;52.192;9.886;2023-02-08T12:14:45;13.07;;;11.67;;
13951;SDS011;39535;52.192;9.886;2023-02-08T12:17:22;12.97;;;10.83;;
13951;SDS011;39535;52.192;9.886;2023-02-08T12:20:20;13.20;;;10.57;;
13951;SDS011;39535;52.192;9.886;2023-02-08T12:23:19;12.83;;;11.47;;
13951;SDS011;39535;52.192;9.886;2023-02-08T12:26:00;11.60;;;10.33;;
13951;SDS011;39535;52.192;9.886;2023-02-08T12:28:39;11.40;;;10.20;;
13951;SDS011;39535;52.192;9.886;2023-02-08T12:31:17;12.27;;;11.03;;
13951;SDS011;39535;52.192;9.886;2023-02-08T12:33:53;13.80;;;12.40;;
13951;SDS011;39535;52.192;9.886;2023-02-08T12:36:30;13.47;;;12.17;;
13951;SDS011;39535;52.192;9.886;2023-02-08T12:39:09;14.23;;;12.13;;
13951;SDS011;39535;52.192;9.886;2023-02-08T12:42:16;12.47;;;11.17;;
13951;SDS011;39535;52.192;9.886;2023-02-08T12:44:57;13.30;;;11.90;;
13951;SDS011;39535;52.192;9.886;2023-02-08T12:47:41;12.43;;;11.13;;
13951;SDS011;39535;52.192;9.886;2023-02-08T12:50:16;13.70;;;12.33;;
13951;SDS011;39535;52.192;9.886;2023-02-08T12:52:51;16.93;;;12.50;;
13951;SDS011;39535;52.192;9.886;2023-02-08T12:55:24;12.03;;;10.80;;
13951;SDS011;39535;52.192;9.886;2023-02-08T12:57:54;12.70;;;11.50;;
13951;SDS011;39535;52.192;9.886;2023-02-08T13:00:24;12.63;;;11.33;;
13951;SDS011;39535;52.192;9.886;2023-02-08T13:02:55;15.83;;;10.97;;
13951;SDS011;39535;52.192;9.886;2023-02-08T13:05:32;14.17;;;12.80;;
13951;SDS011;39535;52.192;9.886;2023-02-08T13:08:06;14.40;;;12.83;;
13951;SDS011;39535;52.192;9.886;2023-02-08T13:10:54;13.63;;;12.20;;
13951;SDS011;39535;52.192;9.886;2023-02-08T13:13:23;13.57;;;12.10;;
13951;SDS011;39535;52.192;9.886;2023-02-08T13:15:55;13.13;;;11.70;;
13951;SDS011;39535;52.192;9.886;2023-02-08T13:18:24;13.33;;;11.93;;
13951;SDS011;39535;52.192;9.886;2023-02-08T13:20:55;13.17;;;11.67;;
13951;SDS011;39535;52.192;9.886;2023-02-08T13:23:25;16.03;;;12.27;;
13951;SDS011;39535;52.192;9.886;2023-02-08T13:25:56;12.77;;;11.40;;
13951;SDS011;39535;52.192;9.886;2023-02-08T13:28:26;14.87;;;11.40;;
13951;SDS011;39535;52.192;9.886;2023-02-08T13:30:54;13.43;;;10.70;;
13951;SDS011;39535;52.192;9.886;2023-02-08T13:33:26;12.50;;;11.20;;
13951;SDS011;39535;52.192;9.886;2023-02-08T13:35:58;11.90;;;10.77;;
13951;SDS011;39535;52.192;9.886;2023-02-08T13:38:26;11.70;;;10.50;;
13951;SDS011;39535;52.192;9.886;2023-02-08T13:41:07;12.67;;;11.03;;
13951;SDS011;39535;52.192;9.886;2023-02-08T13:43:42;14.13;;;10.37;;
13951;SDS011;39535;52.192;9.886;2023-02-08T13:46:16;12.87;;;11.03;;
13951;SDS011;39535;52.192;9.886;2023-02-08T13:48:45;12.67;;;11.30;;
13951;SDS011;39535;52.192;9.886;2023-02-08T13:54:22;12.50;;;10.93;;
13951;SDS011;39535;52.192;9.886;2023-02-08T13:56:50;12.53;;;10.90;;
13951;SDS011;39535;52.192;9.886;2023-02-08T13:59:25;13.03;;;10.80;;
13951;SDS011;39535;52.192;9.886;2023-02-08T14:04:47;13.23;;;11.33;;
13951;SDS011;39535;52.192;9.886;2023-02-08T14:07:17;14.03;;;11.97;;
13951;SDS011;39535;52.192;9.886;2023-02-08T14:09:57;15.60;;;13.17;;
13951;SDS011;39535;52.192;9.886;2023-02-08T14:12:35;18.73;;;11.87;;
13951;SDS011;39535;52.192;9.886;2023-02-08T14:15:07;14.23;;;12.67;;
13951;SDS011;39535;52.192;9.886;2023-02-08T14:17:53;16.03;;;11.70;;
13951;SDS011;39535;52.192;9.886;2023-02-08T14:20:23;18.83;;;13.10;;
13951;SDS011;39535;52.192;9.886;2023-02-08T14:22:54;14.67;;;12.67;;
13951;SDS011;39535;52.192;9.886;2023-02-08T14:25:23;14.97;;;12.20;;
13951;SDS011;39535;52.192;9.886;2023-02-08T14:27:54;14.47;;;12.27;;
13951;SDS011;39535;52.192;9.886;2023-02-08T14:30:24;14.93;;;13.33;;
13951;SDS011;39535;52.192;9.886;2023-02-08T14:32:54;14.70;;;12.57;;
13951;SDS011;39535;52.192;9.886;2023-02-08T14:35:36;14.27;;;12.57;;
13951;SDS011;39535;52.192;9.886;2023-02-08T14:41:15;19.17;;;14.30;;
13951;SDS011;39535;52.192;9.886;2023-02-08T14:50:16;16.43;;;13.43;;
13951;SDS011;39535;52.192;9.886;2023-02-08T14:52:47;18.43;;;13.97;;
13951;SDS011;39535;52.192;9.886;2023-02-08T14:55:20;21.13;;;13.03;;
13951;SDS011;39535;52.192;9.886;2023-02-08T14:57:50;19.43;;;14.07;;
13951;SDS011;39535;52.192;9.886;2023-02-08T15:00:20;16.27;;;12.73;;
13951;SDS011;39535;52.192;9.886;2023-02-08T15:02:49;16.57;;;13.73;;
13951;SDS011;39535;52.192;9.886;2023-02-08T15:05:21;18.63;;;14.90;;
13951;SDS011;39535;52.192;9.886;2023-02-08T15:07:50;20.30;;;15.23;;